Time;durP1;ratioP1;P1;durP2;ratioP2;P2;SDS_P1;SDS_P2;PMS_P1;PMS_P2;Temp;Humidity;BMP_temperature;BMP_pressure;BME280_temperature;BME280_humidity;BME280_pressure;Samples;Min_cycle;Max_cycle;Signal;HPM_P1;HPM_P2
2022/07/31 00:00:27;;;;;;;0.85;0.80;;;23.10;64.20;;;;;;6242063;22;43581;-62
2022/07/31 00:02:56;;;;;;;1.10;1.10;;;23.10;64.20;;;;;;6241776;22;43769;-62
2022/07/31 00:05:24;;;;;;;1.08;0.98;;;23.10;64.20;;;;;;6242285;22;43354;-63
2022/07/31 00:07:55;;;;;;;1.20;1.10;;;23.10;64.20;;;;;;6215473;22;43433;-62
2022/07/31 00:10:23;;;;;;;1.20;1.10;;;23.10;64.20;;;;;;6241461;22;43396;-62
2022/07/31 00:12:51;;;;;;;1.65;1.10;;;23.10;64.20;;;;;;6242234;22;43759;-62
2022/07/31 00:15:19;;;;;;;1.23;1.20;;;23.10;64.30;;;;;;6242324;22;43432;-62
2022/07/31 00:17:47;;;;;;;1.38;1.00;;;23.10;64.20;;;;;;6241611;22;43380;-63
2022/07/31 00:20:16;;;;;;;1.23;1.13;;;23.10;64.20;;;;;;6242169;22;43454;-62
2022/07/31 00:22:45;;;;;;;1.00;1.00;;;23.00;64.10;;;;;;6241853;22;43716;-63
2022/07/31 00:25:13;;;;;;;1.38;1.20;;;23.10;64.20;;;;;;6242557;22;43627;-63
2022/07/31 00:27:41;;;;;;;1.10;1.10;;;23.00;64.20;;;;;;6242248;22;43336;-62
2022/07/31 00:30:11;;;;;;;1.25;1.00;;;23.00;64.10;;;;;;6241491;22;43458;-62
2022/07/31 00:32:40;;;;;;;1.30;1.10;;;23.10;64.20;;;;;;6241832;22;44922;-62
2022/07/31 00:35:09;;;;;;;1.00;1.00;;;23.00;64.10;;;;;;6242313;22;43665;-62
2022/07/31 00:37:40;;;;;;;1.08;1.05;;;23.00;64.10;;;;;;6216357;22;43980;-62
2022/07/31 00:40:11;;;;;;;1.35;1.27;;;23.00;64.10;;;;;;6243371;22;43435;-62
2022/07/31 00:42:38;;;;;;;1.10;1.10;;;23.00;64.10;;;;;;6216756;22;43923;-62
2022/07/31 00:45:07;;;;;;;0.98;0.98;;;23.00;64.10;;;;;;6215714;22;43752;-63
2022/07/31 00:47:35;;;;;;;1.00;1.00;;;23.00;64.10;;;;;;6243397;22;43442;-62
2022/07/31 00:50:06;;;;;;;1.10;1.00;;;23.00;64.10;;;;;;6216859;22;43408;-63
2022/07/31 00:52:33;;;;;;;1.20;1.20;;;23.00;64.10;;;;;;6243033;22;44007;-62
2022/07/31 00:55:01;;;;;;;1.00;1.00;;;23.00;64.10;;;;;;6216998;22;43380;-62
2022/07/31 00:57:29;;;;;;;0.90;0.90;;;23.00;64.10;;;;;;6243668;22;43363;-62
2022/07/31 00:59:58;;;;;;;1.30;1.20;;;23.00;64.10;;;;;;6243137;22;43438;-62
2022/07/31 01:02:26;;;;;;;1.20;1.20;;;23.00;64.10;;;;;;6216276;22;44920;-62
2022/07/31 01:04:53;;;;;;;1.00;1.00;;;22.90;64.10;;;;;;6243256;22;43359;-62
2022/07/31 01:07:21;;;;;;;1.10;1.10;;;23.00;64.10;;;;;;6216369;22;43403;-62
2022/07/31 01:09:50;;;;;;;1.33;1.30;;;22.90;64.10;;;;;;6243509;22;43480;-62
2022/07/31 01:12:26;;;;;;;1.13;1.13;;;23.00;64.10;;;;;;6242471;22;44924;-62
2022/07/31 01:14:58;;;;;;;0.90;0.90;;;22.90;64.00;;;;;;6243397;22;43620;-62
2022/07/31 01:17:29;;;;;;;0.80;0.80;;;23.00;64.10;;;;;;6243814;22;43522;-62
2022/07/31 01:19:57;;;;;;;1.10;1.05;;;22.90;64.00;;;;;;6243228;22;43961;-63
2022/07/31 01:22:52;;;;;;;1.17;1.13;;;22.90;64.10;;;;;;6216175;22;44912;-62
2022/07/31 01:25:50;;;;;;;1.20;1.10;;;22.90;64.00;;;;;;6216323;22;43664;-62
2022/07/31 01:28:45;;;;;;;1.10;1.10;;;22.90;64.00;;;;;;6243903;22;43478;-63
2022/07/31 01:31:20;;;;;;;1.23;1.23;;;22.90;64.10;;;;;;6242870;22;43590;-62
2022/07/31 01:34:07;;;;;;;1.27;1.17;;;22.90;64.10;;;;;;6215812;22;43788;-62
2022/07/31 01:37:20;;;;;;;1.38;1.27;;;22.90;64.10;;;;;;6216235;22;43910;-62
2022/07/31 01:39:59;;;;;;;1.00;1.00;;;22.90;64.10;;;;;;6216865;22;43479;-62
2022/07/31 01:42:29;;;;;;;1.00;1.00;;;22.90;64.10;;;;;;6216287;22;43567;-62
2022/07/31 01:44:59;;;;;;;1.42;1.33;;;22.90;64.10;;;;;;6190985;22;45116;-62
2022/07/31 01:47:29;;;;;;;0.98;0.98;;;22.90;64.10;;;;;;6215096;22;43348;-63
2022/07/31 01:49:59;;;;;;;0.90;0.90;;;22.90;64.10;;;;;;6216147;22;43443;-63
2022/07/31 01:52:28;;;;;;;1.00;1.00;;;22.90;64.10;;;;;;6216137;22;43479;-63
2022/07/31 01:54:58;;;;;;;1.08;1.08;;;22.90;64.70;;;;;;6215831;22;44021;-63
2022/07/31 01:57:28;;;;;;;1.17;1.10;;;22.90;64.10;;;;;;6216198;22;43894;-63
2022/07/31 02:00:04;;;;;;;1.10;1.10;;;22.80;64.00;;;;;;6216456;22;43353;-62
2022/07/31 02:02:54;;;;;;;1.00;1.00;;;22.90;64.10;;;;;;6215688;22;45366;-62
2022/07/31 02:05:23;;;;;;;1.00;1.00;;;22.90;64.10;;;;;;6215761;22;43779;-62
2022/07/31 02:07:52;;;;;;;1.05;1.05;;;22.90;64.00;;;;;;6216304;22;43403;-63
2022/07/31 02:10:24;;;;;;;1.23;1.15;;;22.80;64.00;;;;;;6216677;22;43368;-63
2022/07/31 02:12:52;;;;;;;1.10;1.00;;;22.90;64.00;;;;;;6215877;22;43529;-63
2022/07/31 02:15:21;;;;;;;1.30;1.20;;;22.80;63.90;;;;;;6215748;22;45030;-62
2022/07/31 02:17:51;;;;;;;1.10;1.05;;;22.80;63.90;;;;;;6215966;22;43920;-62
2022/07/31 02:20:19;;;;;;;1.25;1.20;;;22.80;63.90;;;;;;6243065;22;43351;-63
2022/07/31 02:22:48;;;;;;;1.63;1.52;;;22.80;63.90;;;;;;6215843;22;43463;-62
2022/07/31 02:25:16;;;;;;;1.27;1.17;;;22.80;64.00;;;;;;6243276;22;44027;-62
2022/07/31 02:27:44;;;;;;;1.15;1.15;;;22.80;64.00;;;;;;6215938;22;43413;-62
2022/07/31 02:30:28;;;;;;;1.10;1.10;;;22.80;63.90;;;;;;6215953;22;43396;-62
2022/07/31 02:33:13;;;;;;;1.10;1.10;;;22.80;64.00;;;;;;6211043;22;43558;-62
2022/07/31 02:35:44;;;;;;;1.15;1.15;;;22.80;64.00;;;;;;6211145;22;44841;-62
2022/07/31 02:38:17;;;;;;;1.02;1.02;;;22.80;64.00;;;;;;6210873;22;43945;-63
2022/07/31 02:40:58;;;;;;;0.98;0.98;;;22.80;64.10;;;;;;6212757;22;43467;-63
2022/07/31 02:43:29;;;;;;;1.45;1.10;;;22.80;64.00;;;;;;6212507;22;43518;-62
2022/07/31 02:46:00;;;;;;;1.27;1.27;;;22.80;64.00;;;;;;6211607;22;44743;-63
2022/07/31 02:48:28;;;;;;;1.02;1.02;;;22.80;64.00;;;;;;6210603;22;43687;-62
2022/07/31 02:51:01;;;;;;;1.10;1.10;;;22.80;64.00;;;;;;6210941;22;43439;-62
2022/07/31 02:53:29;;;;;;;1.13;1.10;;;22.80;64.00;;;;;;6210965;22;43476;-63
2022/07/31 02:56:03;;;;;;;1.00;1.00;;;22.80;64.00;;;;;;6211247;22;44693;-63
2022/07/31 02:58:40;;;;;;;1.00;1.00;;;22.80;64.00;;;;;;6210084;22;43709;-63
2022/07/31 03:01:15;;;;;;;1.13;1.13;;;22.80;64.00;;;;;;6210205;22;43396;-62
2022/07/31 03:03:43;;;;;;;1.10;1.10;;;22.80;64.00;;;;;;6210632;22;43613;-63
2022/07/31 03:06:10;;;;;;;1.20;1.10;;;22.80;64.00;;;;;;6210237;22;44653;-62
2022/07/31 03:08:38;;;;;;;1.40;1.30;;;22.80;64.00;;;;;;6210292;22;43903;-63
2022/07/31 03:11:07;;;;;;;1.20;1.10;;;22.80;64.10;;;;;;6210406;22;43405;-63
2022/07/31 03:13:37;;;;;;;1.15;1.10;;;22.80;64.00;;;;;;6212080;22;43347;-63
2022/07/31 03:16:07;;;;;;;1.02;1.02;;;22.80;64.00;;;;;;6210547;22;44049;-62
2022/07/31 03:18:36;;;;;;;1.17;1.17;;;22.80;64.00;;;;;;6211784;22;43670;-63
2022/07/31 03:21:05;;;;;;;1.33;1.23;;;22.70;64.00;;;;;;6210200;22;43412;-63
2022/07/31 03:23:36;;;;;;;1.23;1.23;;;22.80;64.10;;;;;;6212449;22;43390;-62
2022/07/31 03:26:09;;;;;;;1.40;1.30;;;22.70;64.00;;;;;;6210359;22;43765;-62
2022/07/31 03:28:37;;;;;;;1.10;1.10;;;22.70;64.10;;;;;;6209907;22;44053;-62
2022/07/31 03:31:06;;;;;;;1.08;1.05;;;22.70;64.10;;;;;;6210072;22;43479;-62
2022/07/31 03:33:35;;;;;;;0.80;0.80;;;22.70;64.10;;;;;;6210299;22;43475;-62
2022/07/31 03:36:03;;;;;;;1.00;1.00;;;22.70;64.00;;;;;;6211221;22;44347;-62
2022/07/31 03:38:30;;;;;;;1.20;1.10;;;22.70;64.00;;;;;;6209821;22;43420;-62
2022/07/31 03:41:14;;;;;;;1.30;1.20;;;22.70;64.00;;;;;;6209913;22;43764;-63
2022/07/31 03:43:44;;;;;;;0.93;0.93;;;22.70;64.10;;;;;;6210314;22;43527;-62
2022/07/31 03:46:20;;;;;;;0.90;0.90;;;22.70;64.10;;;;;;6210095;22;44011;-62
2022/07/31 03:48:50;;;;;;;1.00;1.00;;;22.70;64.10;;;;;;6211367;22;43357;-62
2022/07/31 03:51:20;;;;;;;1.02;1.02;;;22.70;64.30;;;;;;6208934;22;43351;-62
2022/07/31 03:53:48;;;;;;;1.13;1.13;;;22.70;64.10;;;;;;6208136;22;43439;-62
2022/07/31 03:56:42;;;;;;;1.13;1.13;;;22.70;64.10;;;;;;6211212;22;44006;-62
2022/07/31 03:59:14;;;;;;;1.00;1.00;;;22.70;64.10;;;;;;6210535;22;43972;-62
2022/07/31 04:01:43;;;;;;;1.10;1.00;;;22.70;64.20;;;;;;6210014;22;43576;-62
2022/07/31 04:04:43;;;;;;;1.20;1.20;;;22.70;64.10;;;;;;6211923;22;43428;-63
2022/07/31 04:07:10;;;;;;;1.05;1.05;;;22.70;64.10;;;;;;6210085;22;44943;-62
2022/07/31 04:09:38;;;;;;;1.10;1.10;;;22.60;64.10;;;;;;6211375;22;44051;-62
2022/07/31 04:12:07;;;;;;;1.10;1.10;;;22.60;64.10;;;;;;6211420;22;43441;-62
2022/07/31 04:14:35;;;;;;;1.30;1.20;;;22.70;64.20;;;;;;6210855;22;43570;-62
2022/07/31 04:17:03;;;;;;;1.00;1.00;;;22.60;64.10;;;;;;6211306;22;43763;-62
2022/07/31 04:19:31;;;;;;;1.17;1.17;;;22.60;64.10;;;;;;6210944;22;43416;-62
2022/07/31 04:21:59;;;;;;;0.77;0.75;;;22.60;64.10;;;;;;6211059;22;43433;-62
2022/07/31 04:24:29;;;;;;;1.30;1.20;;;22.60;64.10;;;;;;6211612;22;43552;-62
2022/07/31 04:27:16;;;;;;;1.10;1.10;;;22.70;64.10;;;;;;6212798;22;44920;-62
2022/07/31 04:29:45;;;;;;;1.20;1.10;;;22.60;64.10;;;;;;6210982;22;43627;-62
2022/07/31 04:32:14;;;;;;;1.20;1.20;;;22.60;64.10;;;;;;6211538;22;43435;-62
2022/07/31 04:34:52;;;;;;;1.10;1.10;;;22.60;64.10;;;;;;6185871;22;43551;-62
2022/07/31 04:37:20;;;;;;;1.17;1.17;;;22.60;64.20;;;;;;6210631;22;45239;-62
2022/07/31 04:39:48;;;;;;;1.17;1.17;;;22.60;64.20;;;;;;6211135;22;43688;-62
2022/07/31 04:42:15;;;;;;;1.05;1.05;;;22.60;64.10;;;;;;6212942;22;43499;-62
2022/07/31 04:44:43;;;;;;;1.20;1.10;;;22.60;64.10;;;;;;6212611;22;43409;-62
2022/07/31 04:47:12;;;;;;;0.98;0.98;;;22.60;64.20;;;;;;6211092;22;43753;-63
2022/07/31 04:49:43;;;;;;;1.13;1.13;;;22.60;64.10;;;;;;6211084;22;44012;-62
2022/07/31 04:52:14;;;;;;;1.20;1.20;;;22.60;64.10;;;;;;6211214;22;43332;-62
2022/07/31 04:54:44;;;;;;;1.23;1.23;;;22.60;64.20;;;;;;6211204;22;43486;-62
2022/07/31 04:57:13;;;;;;;1.30;1.20;;;22.60;64.20;;;;;;6210591;22;44927;-62
2022/07/31 04:59:47;;;;;;;1.00;1.00;;;22.60;64.20;;;;;;6210928;22;44640;-62
2022/07/31 05:02:29;;;;;;;1.10;1.10;;;22.60;64.30;;;;;;6211124;22;43415;-62
2022/07/31 05:04:57;;;;;;;1.27;1.17;;;22.60;64.20;;;;;;6210882;22;43574;-63
2022/07/31 05:07:33;;;;;;;1.17;1.17;;;22.60;64.20;;;;;;6211733;22;44046;-62
2022/07/31 05:10:05;;;;;;;0.93;0.93;;;22.60;64.30;;;;;;6211080;22;43924;-62
2022/07/31 05:12:34;;;;;;;1.13;1.13;;;22.60;64.30;;;;;;6210533;22;44107;-62
2022/07/31 05:15:02;;;;;;;1.40;1.15;;;22.50;64.20;;;;;;6211380;22;43558;-62
2022/07/31 05:17:29;;;;;;;1.17;0.95;;;22.60;64.20;;;;;;6212752;22;44542;-62
2022/07/31 05:20:14;;;;;;;1.13;1.13;;;22.50;64.90;;;;;;6210638;22;43987;-62
2022/07/31 05:23:02;;;;;;;1.48;0.93;;;22.50;64.20;;;;;;6211432;22;43474;-62
2022/07/31 05:25:51;;;;;;;1.10;1.10;;;22.50;64.30;;;;;;6212516;22;43423;-62
2022/07/31 05:28:19;;;;;;;0.98;0.98;;;22.50;64.30;;;;;;6212454;22;45028;-62
2022/07/31 05:30:57;;;;;;;1.15;1.13;;;22.50;64.30;;;;;;6210824;22;43979;-62
2022/07/31 05:33:24;;;;;;;0.98;0.98;;;22.50;64.20;;;;;;6210453;22;43415;-62
2022/07/31 05:35:52;;;;;;;1.15;1.10;;;22.50;64.30;;;;;;6210918;22;43547;-62
2022/07/31 05:38:19;;;;;;;1.33;1.17;;;22.50;64.30;;;;;;6211108;22;44894;-61
2022/07/31 05:41:10;;;;;;;1.27;1.10;;;22.50;64.40;;;;;;6211035;22;43743;-62
2022/07/31 05:43:59;;;;;;;1.25;1.15;;;22.50;64.30;;;;;;6211424;22;43427;-62
2022/07/31 05:46:31;;;;;;;1.20;1.20;;;22.50;64.40;;;;;;6210429;22;43516;-62
2022/07/31 05:48:59;;;;;;;1.00;1.00;;;22.50;64.40;;;;;;6212643;22;44877;-62
2022/07/31 05:51:27;;;;;;;1.30;1.30;;;22.50;64.40;;;;;;6210345;22;44135;-62
2022/07/31 05:53:54;;;;;;;1.05;1.05;;;22.50;64.50;;;;;;6211035;22;43416;-62
2022/07/31 05:56:41;;;;;;;1.48;1.20;;;22.50;64.40;;;;;;6212544;22;43458;-62
2022/07/31 05:59:10;;;;;;;0.90;0.90;;;22.50;64.40;;;;;;6210865;22;43761;-62
2022/07/31 06:01:39;;;;;;;0.98;0.98;;;22.50;64.40;;;;;;6210056;22;43396;-62
2022/07/31 06:04:07;;;;;;;1.20;0.98;;;22.50;64.40;;;;;;6210649;22;43399;-62
2022/07/31 06:06:41;;;;;;;1.10;1.10;;;22.50;64.40;;;;;;6211220;22;43558;-62
2022/07/31 06:09:08;;;;;;;0.82;0.82;;;22.50;64.50;;;;;;6210090;22;43801;-61
2022/07/31 06:11:40;;;;;;;1.42;1.33;;;22.50;64.40;;;;;;6210467;22;43418;-63
2022/07/31 06:14:08;;;;;;;1.00;1.00;;;22.50;64.50;;;;;;6210790;22;43390;-62
2022/07/31 06:16:55;;;;;;;1.00;1.00;;;22.50;64.50;;;;;;6212600;22;43645;-62
2022/07/31 06:19:23;;;;;;;1.00;1.00;;;22.50;64.40;;;;;;6210505;22;43554;-57
2022/07/31 06:21:52;;;;;;;1.63;1.13;;;22.50;64.30;;;;;;6212004;22;43736;-62
2022/07/31 06:24:30;;;;;;;1.02;1.02;;;22.50;64.40;;;;;;6211476;22;43447;-62
2022/07/31 06:27:01;;;;;;;1.05;1.05;;;22.50;65.00;;;;;;6211266;22;43432;-61
2022/07/31 06:29:32;;;;;;;1.08;1.02;;;22.50;64.50;;;;;;6184808;22;43798;-63
2022/07/31 06:32:11;;;;;;;1.15;1.00;;;22.50;64.50;;;;;;6209694;22;43931;-63
2022/07/31 06:34:39;;;;;;;0.88;0.88;;;22.50;64.50;;;;;;6210847;22;43406;-62
2022/07/31 06:37:07;;;;;;;1.02;1.00;;;22.50;64.40;;;;;;6210634;22;43540;-62
2022/07/31 06:39:34;;;;;;;1.08;0.98;;;22.60;64.50;;;;;;6210190;22;43762;-62
2022/07/31 06:42:50;;;;;;;1.40;0.95;;;22.60;64.50;;;;;;6197106;22;43950;-63
2022/07/31 06:45:41;;;;;;;1.30;1.20;;;22.60;64.50;;;;;;6200841;22;43421;-61
2022/07/31 06:48:47;;;;;;;1.60;1.35;;;22.60;64.50;;;;;;6212048;22;43529;-62
2022/07/31 06:51:14;;;;;;;1.83;1.17;;;22.50;64.60;;;;;;6209695;22;45426;-62
2022/07/31 06:54:04;;;;;;;0.95;0.93;;;22.50;64.60;;;;;;6211072;22;43961;-62
2022/07/31 06:56:32;;;;;;;1.52;1.27;;;22.60;64.70;;;;;;6210544;22;43328;-62
2022/07/31 06:59:00;;;;;;;1.95;1.20;;;22.60;64.60;;;;;;6212748;22;43529;-62
2022/07/31 07:01:28;;;;;;;2.33;1.40;;;22.60;64.70;;;;;;6210231;22;43844;-62
2022/07/31 07:03:57;;;;;;;1.95;1.25;;;22.60;64.70;;;;;;6211957;22;43435;-62
2022/07/31 07:06:25;;;;;;;2.17;1.27;;;22.60;64.60;;;;;;6211156;22;43432;-62
2022/07/31 07:08:53;;;;;;;1.52;1.40;;;22.70;64.70;;;;;;6210528;22;43621;-62
2022/07/31 07:11:21;;;;;;;2.10;1.20;;;22.70;64.60;;;;;;6209365;22;43890;-62
2022/07/31 07:13:49;;;;;;;2.28;1.33;;;22.60;64.50;;;;;;6210621;22;43371;-62
2022/07/31 07:16:18;;;;;;;2.88;1.52;;;22.60;64.50;;;;;;6210178;22;43460;-62
2022/07/31 07:18:46;;;;;;;2.05;1.33;;;22.60;64.50;;;;;;6210069;22;43917;-61
2022/07/31 07:21:14;;;;;;;2.22;1.45;;;22.60;64.50;;;;;;6210161;22;43993;-62
2022/07/31 07:23:41;;;;;;;1.50;1.40;;;22.70;64.60;;;;;;6210458;22;43924;-62
2022/07/31 07:26:24;;;;;;;1.65;1.50;;;22.70;64.60;;;;;;6210634;22;43419;-62
2022/07/31 07:28:51;;;;;;;3.20;1.27;;;22.70;64.60;;;;;;6210359;22;43499;-62
2022/07/31 07:31:19;;;;;;;2.47;1.40;;;22.70;64.60;;;;;;6210230;22;44898;-62
2022/07/31 07:33:47;;;;;;;3.80;1.35;;;22.70;64.60;;;;;;6205947;22;43372;-62
2022/07/31 07:36:20;;;;;;;3.25;1.65;;;22.70;64.70;;;;;;6207261;22;43348;-62
2022/07/31 07:39:02;;;;;;;2.67;1.60;;;22.70;64.60;;;;;;6210180;22;43511;-63
2022/07/31 07:41:32;;;;;;;1.70;1.50;;;22.70;65.20;;;;;;6208438;22;44674;-62
2022/07/31 07:44:00;;;;;;;2.33;1.58;;;22.70;64.80;;;;;;6208833;22;43923;-62
2022/07/31 07:46:29;;;;;;;2.17;1.40;;;22.70;64.70;;;;;;6209156;22;44010;-62
2022/07/31 07:49:00;;;;;;;3.88;1.42;;;22.70;64.70;;;;;;6184845;22;43508;-62
2022/07/31 07:51:51;;;;;;;2.83;1.60;;;22.70;64.70;;;;;;6210874;22;44912;-62
2022/07/31 07:54:35;;;;;;;1.67;1.50;;;22.70;64.90;;;;;;6210211;22;43419;-62
2022/07/31 07:57:16;;;;;;;3.67;2.00;;;22.70;64.70;;;;;;6211508;22;43351;-62
2022/07/31 08:00:09;;;;;;;2.70;1.50;;;22.70;64.80;;;;;;6167493;22;43342;-61
2022/07/31 08:02:45;;;;;;;2.38;1.60;;;22.70;64.70;;;;;;6210609;22;44965;-62
2022/07/31 08:05:37;;;;;;;2.22;1.50;;;22.70;64.50;;;;;;6209760;22;43373;-61
2022/07/31 08:08:04;;;;;;;2.08;1.50;;;22.70;64.60;;;;;;6209418;22;43412;-62
2022/07/31 08:10:35;;;;;;;2.05;1.85;;;22.70;64.60;;;;;;6211076;22;43399;-62
2022/07/31 08:13:08;;;;;;;1.70;1.58;;;22.70;64.40;;;;;;6209693;22;43854;-63
2022/07/31 08:15:54;;;;;;;2.03;1.70;;;22.70;64.40;;;;;;6210731;22;43411;-62
2022/07/31 08:18:30;;;;;;;3.05;1.70;;;22.70;64.40;;;;;;6207916;22;43435;-61
2022/07/31 08:20:58;;;;;;;1.95;1.65;;;22.80;65.00;;;;;;6208850;22;43458;-62
2022/07/31 08:23:26;;;;;;;2.53;1.60;;;22.80;64.40;;;;;;6209310;22;43985;-62
2022/07/31 08:25:54;;;;;;;2.03;1.80;;;22.80;64.30;;;;;;6209220;22;43402;-62
2022/07/31 08:28:24;;;;;;;2.53;1.48;;;22.80;64.40;;;;;;6206468;22;43955;-62
2022/07/31 08:30:53;;;;;;;2.75;1.70;;;22.80;64.30;;;;;;6175568;22;43515;-62
2022/07/31 08:33:22;;;;;;;1.90;1.80;;;22.80;64.40;;;;;;6207886;22;43734;-62
2022/07/31 08:35:54;;;;;;;1.60;1.50;;;22.80;64.40;;;;;;6207932;22;43927;-62
2022/07/31 08:38:22;;;;;;;3.22;1.88;;;22.80;64.40;;;;;;6208453;22;43465;-62
2022/07/31 08:41:18;;;;;;;2.85;1.85;;;22.80;64.40;;;;;;6189941;22;43554;-63
2022/07/31 08:43:46;;;;;;;2.05;1.60;;;22.80;64.50;;;;;;6206759;22;44744;-62
2022/07/31 08:46:36;;;;;;;2.20;2.03;;;22.80;64.40;;;;;;6207782;22;43609;-62
2022/07/31 08:49:08;;;;;;;3.00;1.85;;;22.80;64.50;;;;;;6208322;22;43348;-63
2022/07/31 08:51:44;;;;;;;2.20;1.80;;;22.80;64.40;;;;;;6208273;22;43588;-62
2022/07/31 08:54:50;;;;;;;1.77;1.67;;;22.80;64.40;;;;;;5091136;22;10000260;-62
2022/07/31 08:57:20;;;;;;;2.92;1.77;;;22.80;64.50;;;;;;6138439;23;43449;-62
2022/07/31 08:59:51;;;;;;;2.80;1.65;;;22.80;64.60;;;;;;6138542;23;43804;-63
2022/07/31 09:02:19;;;;;;;2.47;1.77;;;22.80;64.50;;;;;;6090189;23;43487;-62
2022/07/31 09:05:23;;;;;;;1.90;1.63;;;22.90;64.70;;;;;;6088529;23;43305;-61
2022/07/31 09:07:54;;;;;;;1.80;1.60;;;22.90;64.50;;;;;;6090810;23;43420;-61
2022/07/31 09:10:24;;;;;;;1.67;1.38;;;22.90;64.50;;;;;;6089849;23;44973;-62
2022/07/31 09:12:54;;;;;;;1.45;1.35;;;22.90;64.50;;;;;;6137458;23;44020;-62
2022/07/31 09:15:29;;;;;;;2.92;1.70;;;22.90;64.40;;;;;;6086563;23;43376;-61
2022/07/31 09:18:01;;;;;;;1.77;1.60;;;22.90;64.70;;;;;;6090861;23;43467;-62
2022/07/31 09:20:29;;;;;;;2.17;1.77;;;22.90;64.50;;;;;;6089992;23;43851;-61
2022/07/31 09:23:05;;;;;;;2.47;1.70;;;22.90;64.50;;;;;;6138540;23;44009;-61
2022/07/31 09:25:35;;;;;;;2.08;1.80;;;22.90;64.60;;;;;;6088073;23;43451;-62
2022/07/31 09:28:07;;;;;;;1.88;1.60;;;22.90;64.70;;;;;;6090278;23;43559;-62
2022/07/31 09:30:35;;;;;;;1.70;1.60;;;22.90;64.80;;;;;;6087985;23;43837;-61
2022/07/31 09:33:46;;;;;;;1.67;1.58;;;22.90;64.60;;;;;;6090107;23;43468;-62
2022/07/31 09:36:22;;;;;;;2.00;1.60;;;22.90;64.60;;;;;;6089186;23;43505;-62
2022/07/31 09:38:57;;;;;;;2.00;1.80;;;22.90;64.60;;;;;;6089764;23;43547;-62
2022/07/31 09:41:30;;;;;;;1.70;1.60;;;22.90;64.70;;;;;;6091186;23;44740;-62
2022/07/31 09:44:50;;;;;;;1.60;1.50;;;22.90;64.60;;;;;;6089562;23;43419;-62
2022/07/31 09:47:39;;;;;;;1.73;1.50;;;22.90;64.60;;;;;;6088707;23;43404;-62
2022/07/31 09:50:07;;;;;;;2.25;1.67;;;22.90;64.60;;;;;;6089375;23;43424;-62
2022/07/31 09:52:34;;;;;;;1.88;1.60;;;22.90;64.60;;;;;;6088610;23;44929;-61
2022/07/31 09:55:05;;;;;;;1.65;1.55;;;22.90;64.80;;;;;;6088173;23;44072;-63
2022/07/31 09:58:10;;;;;;;2.17;1.90;;;22.90;64.60;;;;;;6139536;23;43338;-63
2022/07/31 10:00:41;;;;;;;1.83;1.73;;;23.00;64.70;;;;;;6087966;23;43555;-62
2022/07/31 10:03:12;;;;;;;1.70;1.60;;;23.00;64.60;;;;;;6087850;23;44017;-63
2022/07/31 10:05:41;;;;;;;2.38;1.77;;;23.00;64.60;;;;;;6089195;23;43866;-63
2022/07/31 10:08:10;;;;;;;2.08;1.83;;;23.00;65.00;;;;;;6089245;23;43413;-62
2022/07/31 10:11:17;;;;;;;1.58;1.48;;;23.00;64.80;;;;;;6057758;23;43502;-62
2022/07/31 10:13:59;;;;;;;2.35;1.60;;;23.00;64.90;;;;;;6082544;23;43995;-62
2022/07/31 10:16:31;;;;;;;1.70;1.60;;;23.00;64.60;;;;;;6089003;23;43359;-62
2022/07/31 10:19:18;;;;;;;1.75;1.50;;;23.00;64.70;;;;;;6088756;23;43401;-61
2022/07/31 10:22:10;;;;;;;1.52;1.42;;;23.00;64.70;;;;;;6075407;23;43495;-62
2022/07/31 10:24:46;;;;;;;1.83;1.67;;;23.00;64.90;;;;;;6090308;23;43803;-62
2022/07/31 10:27:15;;;;;;;2.40;1.50;;;23.00;64.70;;;;;;6089050;23;43515;-62
2022/07/31 10:29:46;;;;;;;1.60;1.50;;;23.00;64.70;;;;;;6138675;23;43408;-62
2022/07/31 10:32:13;;;;;;;1.92;1.70;;;23.00;64.70;;;;;;6152318;23;43558;-61
2022/07/31 10:35:02;;;;;;;1.60;1.50;;;23.00;64.70;;;;;;6150085;23;44671;-62
2022/07/31 10:38:21;;;;;;;2.08;1.60;;;23.00;65.40;;;;;;6121708;23;43494;-62
2022/07/31 10:41:14;;;;;;;2.30;1.55;;;23.00;64.70;;;;;;6138206;23;43325;-62
2022/07/31 10:43:50;;;;;;;1.80;1.50;;;23.00;64.70;;;;;;6122985;23;43477;-62
2022/07/31 10:46:38;;;;;;;1.80;1.70;;;23.00;64.70;;;;;;6124100;23;44727;-62
2022/07/31 10:49:43;;;;;;;1.52;1.40;;;23.00;64.80;;;;;;6120320;23;43851;-62
2022/07/31 10:52:38;;;;;;;1.60;1.50;;;23.00;64.70;;;;;;6123389;23;43455;-61
2022/07/31 10:55:24;;;;;;;1.70;1.60;;;23.00;64.70;;;;;;6150260;23;43534;-62
2022/07/31 10:58:18;;;;;;;2.55;1.58;;;23.00;64.90;;;;;;6143576;23;43761;-62
2022/07/31 11:00:52;;;;;;;1.60;1.50;;;23.00;64.80;;;;;;6150456;23;43365;-62
2022/07/31 11:03:21;;;;;;;1.50;1.40;;;23.00;64.80;;;;;;6150168;23;43400;-61
2022/07/31 11:06:07;;;;;;;1.58;1.48;;;23.00;64.80;;;;;;6150108;23;43491;-62
2022/07/31 11:09:03;;;;;;;1.70;1.45;;;23.00;65.00;;;;;;6120501;23;44738;-62
2022/07/31 11:11:52;;;;;;;2.03;1.67;;;23.00;64.80;;;;;;6173062;23;43967;-62
2022/07/31 11:14:44;;;;;;;1.63;1.52;;;23.00;64.80;;;;;;6123672;23;43321;-62
2022/07/31 11:17:37;;;;;;;1.60;1.50;;;23.00;64.90;;;;;;6150426;23;43337;-62
2022/07/31 11:20:32;;;;;;;1.93;1.57;;;23.00;64.90;;;;;;6146799;23;44001;-61
2022/07/31 11:23:05;;;;;;;1.60;1.50;;;23.00;65.10;;;;;;6150017;23;43415;-62
2022/07/31 11:25:35;;;;;;;1.77;1.67;;;23.00;65.00;;;;;;6149892;23;43349;-63
2022/07/31 11:28:23;;;;;;;1.52;1.42;;;23.00;64.90;;;;;;6146170;23;43997;-62
2022/07/31 11:30:52;;;;;;;1.98;1.63;;;23.00;64.90;;;;;;6149493;23;44898;-62
2022/07/31 11:33:42;;;;;;;1.80;1.70;;;23.00;65.10;;;;;;6149642;23;43472;-61
2022/07/31 11:36:15;;;;;;;2.45;2.00;;;23.00;64.90;;;;;;6119786;23;43443;-62
2022/07/31 11:38:50;;;;;;;1.70;1.60;;;23.00;65.00;;;;;;6147266;23;43619;-62
2022/07/31 11:41:22;;;;;;;2.03;1.58;;;23.10;65.00;;;;;;6149223;23;44972;-61
2022/07/31 11:43:51;;;;;;;1.83;1.60;;;23.00;64.90;;;;;;6149719;23;43409;-61
2022/07/31 11:46:25;;;;;;;1.67;1.58;;;23.00;65.00;;;;;;6147925;23;43418;-61
2022/07/31 11:48:54;;;;;;;2.55;1.83;;;23.00;65.00;;;;;;6149388;23;43477;-61
2022/07/31 11:51:22;;;;;;;1.88;1.77;;;23.00;65.00;;;;;;6150040;23;44654;-61
2022/07/31 11:53:50;;;;;;;1.77;1.67;;;23.00;65.00;;;;;;6150770;23;43634;-61
2022/07/31 11:56:25;;;;;;;1.88;1.77;;;23.00;64.90;;;;;;6150719;23;43322;-61
2022/07/31 11:58:55;;;;;;;1.65;1.55;;;23.00;65.10;;;;;;6150003;23;43468;-61
2022/07/31 12:01:28;;;;;;;1.73;1.63;;;23.00;65.00;;;;;;6150341;23;44752;-61
2022/07/31 12:03:56;;;;;;;1.95;1.75;;;23.10;65.00;;;;;;6145798;23;43428;-61
2022/07/31 12:06:38;;;;;;;1.70;1.60;;;23.00;65.00;;;;;;6150062;23;43902;-62
2022/07/31 12:09:07;;;;;;;1.90;1.80;;;23.10;65.00;;;;;;6150790;23;43403;-61
2022/07/31 12:11:55;;;;;;;1.88;1.77;;;23.00;65.00;;;;;;6149690;23;44677;-62
2022/07/31 12:14:30;;;;;;;1.60;1.50;;;23.10;65.10;;;;;;6149383;23;43456;-61
2022/07/31 12:16:59;;;;;;;2.17;1.70;;;23.10;65.40;;;;;;6150339;23;43463;-61
2022/07/31 12:19:32;;;;;;;1.60;1.50;;;23.00;65.00;;;;;;6150208;23;43471;-60
2022/07/31 12:22:15;;;;;;;2.00;1.90;;;23.00;65.20;;;;;;6149729;23;43876;-61
2022/07/31 12:24:43;;;;;;;1.90;1.80;;;23.10;65.40;;;;;;6149906;23;43409;-62
2022/07/31 12:27:15;;;;;;;1.80;1.70;;;23.00;65.30;;;;;;6150094;23;43377;-61
2022/07/31 12:29:44;;;;;;;1.80;1.70;;;23.10;65.30;;;;;;6150936;23;43372;-61
2022/07/31 12:32:11;;;;;;;2.13;1.90;;;23.10;65.40;;;;;;6151084;23;44649;-61
2022/07/31 12:34:41;;;;;;;2.00;1.90;;;23.00;65.30;;;;;;6150670;23;43947;-61
2022/07/31 12:37:12;;;;;;;2.03;1.92;;;23.00;65.50;;;;;;6151845;23;43942;-61
2022/07/31 12:39:49;;;;;;;2.30;1.88;;;23.00;65.50;;;;;;6152216;23;43516;-61
2022/07/31 12:42:33;;;;;;;1.92;1.83;;;23.00;65.60;;;;;;6151271;23;45189;-61
2022/07/31 12:45:08;;;;;;;2.17;2.03;;;23.00;65.70;;;;;;6151279;23;43350;-60
2022/07/31 12:47:47;;;;;;;2.20;2.00;;;23.00;65.80;;;;;;6152523;23;43365;-61
2022/07/31 12:50:23;;;;;;;2.15;1.98;;;23.00;65.90;;;;;;6151654;23;43441;-62
2022/07/31 12:52:51;;;;;;;1.83;1.73;;;23.00;65.80;;;;;;6151513;23;44257;-61
2022/07/31 12:55:21;;;;;;;2.20;2.00;;;23.00;65.80;;;;;;6147447;23;43970;-61
2022/07/31 12:57:51;;;;;;;1.67;1.58;;;23.00;65.80;;;;;;6151926;23;43412;-61
2022/07/31 13:00:21;;;;;;;2.03;1.90;;;23.00;65.90;;;;;;6151307;23;43472;-61
2022/07/31 13:02:54;;;;;;;1.77;1.60;;;23.00;65.70;;;;;;6150931;23;44678;-61
2022/07/31 13:05:22;;;;;;;1.70;1.60;;;23.00;65.60;;;;;;6152259;23;44050;-62
2022/07/31 13:07:50;;;;;;;2.03;1.92;;;23.00;65.40;;;;;;6152647;23;43373;-61
2022/07/31 13:10:21;;;;;;;2.03;1.90;;;22.90;65.40;;;;;;6151284;23;43483;-62
2022/07/31 13:12:51;;;;;;;1.80;1.70;;;22.90;65.60;;;;;;6151156;23;43780;-61
2022/07/31 13:15:22;;;;;;;1.65;1.55;;;23.00;65.70;;;;;;6152271;23;43318;-61
2022/07/31 13:17:52;;;;;;;2.20;2.00;;;22.90;65.50;;;;;;6152277;23;43384;-61
2022/07/31 13:20:19;;;;;;;2.10;1.90;;;23.00;65.80;;;;;;6152015;23;43446;-61
2022/07/31 13:22:49;;;;;;;1.60;1.50;;;23.00;65.90;;;;;;6151349;23;44486;-61